createdAt,value
2023-04-20T00:01:11.832Z,34.00
2023-04-20T00:03:39.789Z,33.99
2023-04-20T00:06:07.993Z,33.57
2023-04-20T00:08:35.843Z,33.40
2023-04-20T00:11:03.720Z,34.27
2023-04-20T00:13:32.803Z,33.90
2023-04-20T00:16:00.568Z,33.92
2023-04-20T00:18:28.284Z,33.45
2023-04-20T00:20:56.004Z,33.55
2023-04-20T00:23:23.688Z,33.06
2023-04-20T00:25:52.219Z,33.06
2023-04-20T00:28:20.000Z,33.21
2023-04-20T00:30:49.114Z,33.42
2023-04-20T00:33:16.888Z,33.54
2023-04-20T00:35:44.591Z,33.26
2023-04-20T00:38:12.341Z,33.55
2023-04-20T00:40:40.100Z,33.28
2023-04-20T00:43:11.573Z,33.09
2023-04-20T00:45:39.504Z,32.81
2023-04-20T00:48:08.753Z,33.45
2023-04-20T00:50:38.660Z,33.32
2023-04-20T00:53:07.825Z,33.79
2023-04-20T00:55:38.603Z,33.57
2023-04-20T00:58:06.545Z,33.79
2023-04-20T01:00:35.037Z,33.48
2023-04-20T01:03:03.116Z,33.44
2023-04-20T01:05:32.312Z,34.63
2023-04-20T01:08:00.043Z,34.24
2023-04-20T01:10:27.849Z,33.77
2023-04-20T01:12:55.522Z,34.38
2023-04-20T01:15:23.256Z,34.02
2023-04-20T01:17:52.373Z,34.28
2023-04-20T01:20:20.449Z,34.51
2023-04-20T01:22:50.940Z,33.90
2023-04-20T01:25:20.182Z,33.79
2023-04-20T01:27:47.923Z,34.00
2023-04-20T01:30:17.235Z,34.04
2023-04-20T01:32:45.443Z,33.82
2023-04-20T01:35:13.205Z,33.43
2023-04-20T01:37:41.835Z,34.28
2023-04-20T01:40:13.394Z,34.14
2023-04-20T01:42:41.348Z,33.99
2023-04-20T01:45:10.122Z,34.14
2023-04-20T01:47:38.148Z,34.35
2023-04-20T01:50:06.514Z,34.01
2023-04-20T01:52:34.192Z,34.00
2023-04-20T01:55:01.933Z,34.41
2023-04-20T01:57:31.052Z,34.55
2023-04-20T01:59:58.792Z,34.55
2023-04-20T02:02:26.648Z,34.71
2023-04-20T02:04:54.505Z,34.84
2023-04-20T02:07:22.210Z,34.93
2023-04-20T02:09:49.894Z,35.24
2023-04-20T02:12:17.608Z,35.28
2023-04-20T02:14:46.685Z,35.08
2023-04-20T02:17:14.976Z,35.24
2023-04-20T02:19:42.816Z,35.32
2023-04-20T02:22:10.553Z,35.03
2023-04-20T02:24:38.212Z,35.44
2023-04-20T02:27:06.327Z,34.51
2023-04-20T02:29:34.039Z,35.34
2023-04-20T02:32:03.114Z,35.43
2023-04-20T02:34:30.850Z,35.21
2023-04-20T02:36:58.600Z,35.38
2023-04-20T02:39:26.413Z,35.27
2023-04-20T02:41:54.117Z,35.38
2023-04-20T02:44:21.789Z,35.43
2023-04-20T02:46:49.541Z,35.45
2023-04-20T02:49:18.956Z,35.71
2023-04-20T02:51:46.895Z,35.42
2023-04-20T02:54:14.709Z,35.32
2023-04-20T02:56:42.441Z,35.39
2023-04-20T02:59:10.341Z,35.30
2023-04-20T03:01:38.111Z,35.03
2023-04-20T03:04:06.641Z,35.40
2023-04-20T03:06:38.708Z,35.84
2023-04-20T03:09:08.924Z,35.99
2023-04-20T03:11:36.714Z,36.03
2023-04-20T03:14:04.418Z,36.34
2023-04-20T03:16:32.227Z,36.40
2023-04-20T03:19:00.003Z,36.48
2023-04-20T03:21:27.696Z,36.62
2023-04-20T03:23:56.725Z,36.65
2023-04-20T03:26:24.440Z,36.41
2023-04-20T03:28:52.431Z,36.65
2023-04-20T03:31:20.240Z,36.75
2023-04-20T03:33:47.999Z,36.84
2023-04-20T03:36:15.707Z,36.83
2023-04-20T03:38:43.396Z,37.13
2023-04-20T03:41:12.493Z,37.11
2023-04-20T03:43:41.331Z,37.23
2023-04-20T03:46:09.101Z,37.47
2023-04-20T03:48:36.884Z,37.58
2023-04-20T03:51:04.773Z,37.54
2023-04-20T03:53:32.480Z,37.71
2023-04-20T03:56:00.758Z,37.62
2023-04-20T03:58:29.881Z,37.88
2023-04-20T04:01:02.377Z,37.99
2023-04-20T04:03:30.346Z,38.20
2023-04-20T04:05:58.393Z,38.37
2023-04-20T04:08:26.737Z,38.38
2023-04-20T04:10:54.458Z,38.42
2023-04-20T04:13:22.200Z,38.56
2023-04-20T04:15:51.256Z,38.85
2023-04-20T04:18:18.924Z,38.94
2023-04-20T04:20:46.594Z,38.96
2023-04-20T04:23:14.336Z,39.18
2023-04-20T04:25:42.280Z,39.24
2023-04-20T04:28:10.065Z,39.21
2023-04-20T04:30:37.863Z,39.39
2023-04-20T04:33:07.706Z,39.35
2023-04-20T04:35:35.486Z,39.63
2023-04-20T04:38:03.262Z,39.71
2023-04-20T04:40:32.759Z,40.28
2023-04-20T04:43:01.005Z,40.00
2023-04-20T04:45:28.713Z,40.07
2023-04-20T04:47:57.207Z,40.17
2023-04-20T04:50:26.367Z,40.25
2023-04-20T04:52:54.128Z,40.49
2023-04-20T04:55:21.801Z,40.83
2023-04-20T04:57:49.515Z,40.66
2023-04-20T05:00:19.412Z,40.76
2023-04-20T05:02:47.307Z,41.07
2023-04-20T05:05:15.594Z,41.36
2023-04-20T05:07:44.743Z,41.57
2023-04-20T05:10:14.138Z,41.92
2023-04-20T05:12:42.861Z,41.91
2023-04-20T05:15:11.345Z,41.91
2023-04-20T05:17:39.086Z,42.30
2023-04-20T05:20:10.493Z,42.45
2023-04-20T05:22:38.363Z,42.77
2023-04-20T05:25:08.832Z,42.74
2023-04-20T05:27:36.768Z,43.16
2023-04-20T05:30:16.984Z,43.19
2023-04-20T05:32:49.971Z,43.31
2023-04-20T05:35:19.208Z,43.74
2023-04-20T05:37:47.695Z,43.49
2023-04-20T05:40:17.259Z,43.59
2023-04-20T05:42:44.971Z,43.56
2023-04-20T05:45:12.978Z,43.46
2023-04-20T05:47:40.800Z,43.76
2023-04-20T05:50:10.287Z,43.84
2023-04-20T05:52:38.144Z,43.84
2023-04-20T05:55:06.625Z,43.93
2023-04-20T05:57:41.810Z,43.84
2023-04-20T06:00:11.689Z,44.00
2023-04-20T06:02:39.803Z,44.25
2023-04-20T06:05:09.419Z,45.23
2023-04-20T06:07:37.507Z,45.12
2023-04-20T06:10:06.654Z,45.01
2023-04-20T06:12:35.953Z,44.84
2023-04-20T06:15:04.790Z,45.20
2023-04-20T06:17:32.534Z,44.92
2023-04-20T06:20:00.262Z,44.74
2023-04-20T06:22:28.046Z,44.78
2023-04-20T06:24:55.829Z,44.61
2023-04-20T06:27:23.531Z,44.65
2023-04-20T06:29:52.597Z,44.48
2023-04-20T06:32:20.372Z,44.55
2023-04-20T06:34:48.292Z,44.56
2023-04-20T06:37:16.132Z,44.64
2023-04-20T06:39:43.849Z,44.86
2023-04-20T06:42:11.598Z,44.70
2023-04-20T06:44:39.303Z,44.96
2023-04-20T06:47:08.454Z,45.26
2023-04-20T06:49:37.548Z,44.89
2023-04-20T06:52:05.519Z,45.13
2023-04-20T06:54:33.535Z,45.03
2023-04-20T06:57:01.361Z,44.93
2023-04-20T06:59:29.070Z,45.14
2023-04-20T07:01:56.785Z,45.07
2023-04-20T07:04:26.179Z,45.28
2023-04-20T07:06:54.491Z,44.97
2023-04-20T07:09:23.076Z,45.32
2023-04-20T07:11:50.820Z,45.36
2023-04-20T07:14:18.525Z,45.51
2023-04-20T07:16:46.300Z,45.58
2023-04-20T07:19:14.039Z,45.61
2023-04-20T07:21:43.122Z,45.93
2023-04-20T07:24:10.830Z,46.21
2023-04-20T07:26:38.591Z,46.16
2023-04-20T07:29:06.434Z,46.13
2023-04-20T07:31:35.422Z,46.07
2023-04-20T07:34:03.457Z,46.41
2023-04-20T07:36:31.208Z,46.14
2023-04-20T07:39:00.307Z,46.04
2023-04-20T07:41:28.143Z,45.97
2023-04-20T07:43:55.878Z,45.98
2023-04-20T07:46:24.011Z,46.23
2023-04-20T07:48:51.757Z,46.45
2023-04-20T07:51:19.473Z,46.52
2023-04-20T07:53:48.073Z,46.77
2023-04-20T07:56:17.151Z,46.51
2023-04-20T07:58:44.859Z,46.69
2023-04-20T08:01:12.581Z,46.66
2023-04-20T08:03:41.769Z,46.56
2023-04-20T08:06:10.980Z,46.02
2023-04-20T08:08:38.681Z,45.63
2023-04-20T08:11:08.105Z,45.36
2023-04-20T08:13:37.732Z,44.97
2023-04-20T08:16:06.021Z,44.65
2023-04-20T08:18:33.852Z,43.93
2023-04-20T08:21:01.594Z,43.69
2023-04-20T08:23:29.339Z,43.16
2023-04-20T08:25:57.153Z,42.88
2023-04-20T08:30:58.784Z,43.58
2023-04-20T08:33:26.548Z,43.58
2023-04-20T08:35:54.342Z,44.10
2023-04-20T08:38:32.822Z,44.32
2023-04-20T08:41:01.823Z,44.85
2023-04-20T08:43:29.539Z,45.04
2023-04-20T08:46:01.737Z,45.36
2023-04-20T08:48:35.056Z,45.34
2023-04-20T08:51:03.022Z,45.72
2023-04-20T08:53:30.868Z,45.86
2023-04-20T08:55:58.756Z,46.19
2023-04-20T08:58:29.543Z,45.85
2023-04-20T09:00:57.251Z,46.04
2023-04-20T09:03:34.568Z,46.05
2023-04-20T09:06:02.534Z,46.23
2023-04-20T09:08:36.448Z,46.60
2023-04-20T09:11:04.179Z,46.41
2023-04-20T09:13:31.937Z,46.28
2023-04-20T09:16:10.422Z,46.38
2023-04-20T09:18:39.557Z,46.56
2023-04-20T09:21:10.791Z,46.78
2023-04-20T09:23:38.658Z,46.54
2023-04-20T09:26:06.722Z,46.73
2023-04-20T09:28:39.673Z,46.73
2023-04-20T09:31:07.461Z,46.87
2023-04-20T09:33:36.743Z,47.04
2023-04-20T09:36:06.943Z,46.87
2023-04-20T09:38:34.692Z,46.90
2023-04-20T09:41:02.905Z,46.95
2023-04-20T09:43:31.504Z,46.52
2023-04-20T09:46:00.302Z,46.83
2023-04-20T09:48:29.153Z,46.91
2023-04-20T09:50:58.974Z,46.88
2023-04-20T09:53:28.099Z,46.90
2023-04-20T09:55:56.157Z,46.68
2023-04-20T09:58:23.927Z,46.84
2023-04-20T10:00:51.930Z,46.82
2023-04-20T10:03:21.723Z,46.83
2023-04-20T10:05:51.652Z,46.86
2023-04-20T10:08:21.243Z,46.72
2023-04-20T10:10:52.295Z,46.73
2023-04-20T10:13:21.927Z,46.81
2023-04-20T10:15:49.868Z,46.61
2023-04-20T10:18:19.787Z,46.58
2023-04-20T10:20:48.075Z,46.66
2023-04-20T10:23:18.494Z,46.61
2023-04-20T10:25:58.341Z,46.18
2023-04-20T10:28:26.267Z,46.48
2023-04-20T10:30:54.806Z,46.40
2023-04-20T10:33:22.919Z,46.52
2023-04-20T10:35:54.536Z,46.46
2023-04-20T10:38:32.237Z,46.63
2023-04-20T10:41:08.303Z,46.63
2023-04-20T10:43:38.960Z,46.76
2023-04-20T10:46:14.902Z,46.56
2023-04-20T10:48:51.202Z,47.09
2023-04-20T10:51:19.054Z,46.92
2023-04-20T10:53:46.781Z,46.69
2023-04-20T10:56:15.936Z,46.08
2023-04-20T10:58:43.763Z,45.68
2023-04-20T11:01:11.505Z,45.42
2023-04-20T11:03:39.300Z,45.04
2023-04-20T11:06:07.612Z,44.65
2023-04-20T11:08:39.823Z,44.14
2023-04-20T11:11:18.247Z,43.54
2023-04-20T11:13:47.484Z,43.21
2023-04-20T11:16:16.891Z,42.33
2023-04-20T11:18:51.424Z,42.28
2023-04-20T11:21:19.418Z,42.38
2023-04-20T11:23:47.631Z,42.45
2023-04-20T11:26:15.905Z,42.42
2023-04-20T11:28:56.443Z,42.55
2023-04-20T11:31:25.546Z,42.75
2023-04-20T11:33:53.451Z,43.18
2023-04-20T11:36:22.110Z,43.82
2023-04-20T11:38:50.104Z,44.00
2023-04-20T11:41:18.403Z,44.50
2023-04-20T11:43:46.283Z,44.84
2023-04-20T11:46:17.106Z,44.94
2023-04-20T11:48:45.535Z,45.47
2023-04-20T11:51:13.332Z,45.66
2023-04-20T11:53:41.395Z,45.74
2023-04-20T11:56:09.750Z,46.22
2023-04-20T11:58:38.329Z,46.37
2023-04-20T12:01:06.798Z,46.76
2023-04-20T12:03:37.066Z,46.76
2023-04-20T12:06:05.552Z,46.95
2023-04-20T12:08:33.276Z,47.28
2023-04-20T12:11:01.003Z,48.00
2023-04-20T12:13:28.720Z,48.65
2023-04-20T12:15:56.506Z,48.59
2023-04-20T12:18:26.788Z,49.84
2023-04-20T12:20:55.882Z,49.94
2023-04-20T12:23:23.616Z,50.16
2023-04-20T12:25:51.366Z,49.69
2023-04-20T12:28:19.246Z,49.27
2023-04-20T12:30:47.040Z,48.55
2023-04-20T12:33:14.800Z,48.02
2023-04-20T12:35:42.665Z,48.59
2023-04-20T12:38:13.977Z,48.57
2023-04-20T12:40:42.308Z,48.58
2023-04-20T12:43:10.064Z,49.01
2023-04-20T12:45:37.790Z,49.33
2023-04-20T12:48:06.350Z,49.69
2023-04-20T12:50:34.220Z,49.60
2023-04-20T12:53:02.378Z,50.01
2023-04-20T12:55:31.766Z,49.92
2023-04-20T12:57:59.531Z,49.45
2023-04-20T13:00:27.413Z,49.72
2023-04-20T13:02:55.286Z,49.77
2023-04-20T13:05:23.159Z,49.56
2023-04-20T13:07:51.487Z,50.38
2023-04-20T13:10:19.209Z,50.14
2023-04-20T13:12:48.267Z,50.15
2023-04-20T13:15:28.304Z,49.93
2023-04-20T13:17:59.952Z,50.33
2023-04-20T13:20:29.305Z,50.34
2023-04-20T13:22:58.510Z,50.00
2023-04-20T13:25:26.664Z,50.23
2023-04-20T13:27:56.309Z,50.63
2023-04-20T13:30:25.073Z,50.65
2023-04-20T13:32:52.958Z,50.27
2023-04-20T13:35:21.106Z,50.40
2023-04-20T13:37:48.948Z,50.43
2023-04-20T13:40:16.739Z,50.28
2023-04-20T13:42:44.477Z,50.46
2023-04-20T13:45:13.865Z,50.64
2023-04-20T13:47:41.879Z,50.06
2023-04-20T13:50:10.550Z,50.03
2023-04-20T13:52:38.441Z,49.63
2023-04-20T13:55:06.663Z,48.85
2023-04-20T13:57:44.303Z,48.56
2023-04-20T14:00:12.823Z,47.99
2023-04-20T14:02:40.715Z,47.91
2023-04-20T14:05:10.280Z,47.06
2023-04-20T14:07:38.131Z,46.60
2023-04-20T14:10:07.141Z,46.27
2023-04-20T14:12:34.994Z,45.71
2023-04-20T14:15:04.460Z,46.25
2023-04-20T14:17:32.269Z,46.54
2023-04-20T14:20:00.602Z,46.62
2023-04-20T14:22:34.142Z,47.16
2023-04-20T14:25:01.869Z,47.20
2023-04-20T14:27:29.613Z,47.77
2023-04-20T14:29:57.323Z,47.60
2023-04-20T14:32:26.462Z,47.62
2023-04-20T14:34:54.276Z,47.70
2023-04-20T14:37:23.190Z,47.65
2023-04-20T14:39:50.905Z,47.83
2023-04-20T14:42:18.662Z,47.65
2023-04-20T14:44:47.829Z,47.75
2023-04-20T14:47:15.531Z,47.83
2023-04-20T14:49:45.099Z,48.11
2023-04-20T14:52:12.828Z,47.92
2023-04-20T14:54:40.615Z,47.98
2023-04-20T14:57:08.350Z,47.70
2023-04-20T14:59:37.165Z,47.43
2023-04-20T15:02:05.822Z,47.54
2023-04-20T15:04:33.867Z,48.19
2023-04-20T15:07:04.063Z,47.75
2023-04-20T15:09:32.734Z,47.72
2023-04-20T15:12:01.862Z,48.12
2023-04-20T15:14:29.607Z,48.33
2023-04-20T15:16:57.426Z,48.10
2023-04-20T15:19:25.259Z,48.08
2023-04-20T15:21:52.970Z,47.97
2023-04-20T15:24:22.057Z,47.78
2023-04-20T15:26:49.783Z,47.85
2023-04-20T15:29:17.574Z,47.91
2023-04-20T15:31:46.814Z,48.21
2023-04-20T15:34:17.293Z,48.37
2023-04-20T15:36:45.833Z,48.37
2023-04-20T15:39:13.605Z,48.19
2023-04-20T15:41:42.680Z,48.09
2023-04-20T15:44:10.443Z,48.27
2023-04-20T15:46:39.221Z,48.41
2023-04-20T15:49:07.203Z,48.48
2023-04-20T15:51:34.969Z,48.28
2023-04-20T15:54:02.711Z,47.77
2023-04-20T15:56:30.459Z,47.68
2023-04-20T15:58:59.571Z,47.38
2023-04-20T16:01:27.398Z,47.20
2023-04-20T16:03:55.338Z,47.62
2023-04-20T16:06:24.178Z,47.52
2023-04-20T16:08:54.019Z,47.14
2023-04-20T16:11:22.229Z,47.44
2023-04-20T16:13:50.091Z,46.94
2023-04-20T16:16:19.231Z,46.99
2023-04-20T16:18:47.058Z,47.12
2023-04-20T16:21:15.423Z,46.46
2023-04-20T16:23:43.153Z,47.01
2023-04-20T16:26:10.969Z,46.72
2023-04-20T16:28:38.847Z,46.67
2023-04-20T16:31:06.758Z,46.32
2023-04-20T16:33:37.965Z,46.59
2023-04-20T16:36:06.247Z,46.36
2023-04-20T16:38:33.982Z,46.27
2023-04-20T16:41:01.738Z,45.76
2023-04-20T16:43:29.487Z,45.21
2023-04-20T16:45:57.207Z,45.85
2023-04-20T16:48:24.954Z,46.38
2023-04-20T16:50:54.180Z,45.62
2023-04-20T16:53:21.881Z,44.89
2023-04-20T16:55:49.620Z,44.86
2023-04-20T16:58:17.409Z,45.35
2023-04-20T17:00:45.183Z,44.72
2023-04-20T17:03:13.876Z,44.92
2023-04-20T17:05:42.315Z,44.72
2023-04-20T17:08:11.451Z,44.24
2023-04-20T17:10:39.477Z,44.58
2023-04-20T17:13:07.278Z,44.72
2023-04-20T17:15:35.121Z,44.75
2023-04-20T17:18:03.569Z,45.19
2023-04-20T17:20:31.357Z,44.44
2023-04-20T17:22:59.076Z,45.02
2023-04-20T17:25:28.256Z,45.13
2023-04-20T17:27:56.016Z,45.24
2023-04-20T17:30:23.824Z,44.98
2023-04-20T17:32:51.628Z,44.77
2023-04-20T17:35:19.358Z,44.55
2023-04-20T17:37:47.208Z,44.95
2023-04-20T17:40:14.981Z,44.66
2023-04-20T17:42:44.428Z,44.55
2023-04-20T17:45:12.732Z,45.18
2023-04-20T17:47:40.522Z,44.69
2023-04-20T17:50:09.665Z,45.23
2023-04-20T17:52:37.362Z,45.01
2023-04-20T17:55:05.670Z,44.85
2023-04-20T17:57:33.446Z,44.87
2023-04-20T18:00:03.935Z,44.77
2023-04-20T18:02:31.856Z,44.91
2023-04-20T18:05:00.910Z,45.26
2023-04-20T18:07:29.301Z,45.00
2023-04-20T18:09:57.001Z,44.95
2023-04-20T18:12:24.744Z,45.00
2023-04-20T18:14:52.447Z,45.02
2023-04-20T18:17:21.654Z,44.92
2023-04-20T18:19:49.379Z,44.79
2023-04-20T18:22:17.171Z,44.88
2023-04-20T18:24:44.974Z,44.55
2023-04-20T18:27:13.327Z,45.03
2023-04-20T18:29:41.163Z,44.69
2023-04-20T18:32:09.113Z,44.82
2023-04-20T18:34:38.202Z,45.04
2023-04-20T18:37:05.952Z,44.87
2023-04-20T18:39:33.876Z,44.87
2023-04-20T18:42:02.277Z,44.96
2023-04-20T18:44:30.311Z,44.99
2023-04-20T18:46:58.377Z,44.91
2023-04-20T18:49:26.224Z,45.13
2023-04-20T18:51:55.369Z,44.89
2023-04-20T18:54:23.106Z,44.77
2023-04-20T18:56:50.935Z,45.05
2023-04-20T18:59:18.627Z,45.29
2023-04-20T19:01:47.554Z,45.18
2023-04-20T19:04:15.325Z,45.23
2023-04-20T19:06:43.157Z,45.11
2023-04-20T19:09:12.221Z,45.14
2023-04-20T19:11:40.052Z,45.17
2023-04-20T19:14:07.893Z,45.66
2023-04-20T19:16:35.918Z,45.52
2023-04-20T19:19:04.083Z,45.52
2023-04-20T19:21:32.690Z,45.78
2023-04-20T19:24:00.567Z,45.73
2023-04-20T19:26:29.640Z,45.79
2023-04-20T19:28:58.269Z,46.00
2023-04-20T19:31:26.450Z,45.90
2023-04-20T19:33:56.546Z,46.11
2023-04-20T19:36:24.895Z,45.87
2023-04-20T19:38:52.628Z,46.03
2023-04-20T19:41:20.408Z,46.16
2023-04-20T19:43:49.508Z,46.38
2023-04-20T19:46:17.318Z,46.77
2023-04-20T19:48:45.268Z,46.28
2023-04-20T19:51:12.980Z,47.02
2023-04-20T19:53:41.013Z,46.89
2023-04-20T19:56:08.812Z,47.05
2023-04-20T19:58:36.582Z,46.86
2023-04-20T20:01:06.138Z,46.98
2023-04-20T20:03:34.079Z,47.18
2023-04-20T20:06:01.968Z,47.00
2023-04-20T20:08:29.963Z,47.21
2023-04-20T20:10:57.820Z,47.25
2023-04-20T20:13:26.234Z,47.22
2023-04-20T20:15:54.310Z,47.36
2023-04-20T20:18:23.468Z,47.56
2023-04-20T20:20:51.513Z,47.33
2023-04-20T20:23:19.268Z,47.42
2023-04-20T20:25:47.051Z,47.37
2023-04-20T20:28:15.282Z,47.43
2023-04-20T20:30:45.194Z,47.35
2023-04-20T20:33:13.078Z,47.43
2023-04-20T20:35:42.584Z,47.62
2023-04-20T20:38:11.049Z,47.66
2023-04-20T20:40:39.946Z,47.78
2023-04-20T20:43:08.537Z,47.70
2023-04-20T20:45:37.226Z,47.87
2023-04-20T20:48:05.629Z,47.80
2023-04-20T20:50:33.464Z,47.97
2023-04-20T20:53:02.537Z,47.79
2023-04-20T20:55:30.422Z,47.80
2023-04-20T20:57:58.200Z,48.08
2023-04-20T21:00:25.923Z,48.10
2023-04-20T21:02:53.810Z,47.99
2023-04-20T21:05:22.833Z,48.16
2023-04-20T21:07:50.821Z,48.11
2023-04-20T21:10:19.916Z,48.04
2023-04-20T21:12:47.647Z,48.23
2023-04-20T21:15:15.427Z,48.10
2023-04-20T21:17:43.470Z,48.13
2023-04-20T21:20:12.307Z,48.19
2023-04-20T21:22:40.156Z,48.28
2023-04-20T21:25:08.719Z,48.21
2023-04-20T21:27:37.820Z,48.27
2023-04-20T21:30:06.240Z,48.48
2023-04-20T21:32:33.922Z,48.75
2023-04-20T21:35:01.658Z,48.63
2023-04-20T21:37:29.347Z,48.40
2023-04-20T21:39:57.054Z,48.74
2023-04-20T21:42:24.725Z,48.65
2023-04-20T21:44:53.823Z,48.68
2023-04-20T21:47:21.881Z,48.59
2023-04-20T21:49:49.623Z,48.64
2023-04-20T21:52:17.294Z,48.98
2023-04-20T21:54:44.995Z,48.99
2023-04-20T21:57:12.746Z,48.90
2023-04-20T21:59:40.447Z,49.30
2023-04-20T22:02:09.600Z,49.45
2023-04-20T22:04:37.436Z,49.69
2023-04-20T22:07:05.306Z,49.97
2023-04-20T22:09:33.139Z,50.14
2023-04-20T22:12:02.039Z,50.58
2023-04-20T22:14:30.234Z,50.66
2023-04-20T22:16:57.964Z,50.60
2023-04-20T22:19:27.031Z,51.04
2023-04-20T22:21:54.832Z,51.19
2023-04-20T22:24:22.551Z,51.27
2023-04-20T22:26:50.257Z,51.65
2023-04-20T22:29:18.082Z,51.36
2023-04-20T22:31:46.043Z,51.83
2023-04-20T22:34:13.814Z,52.18
2023-04-20T22:36:42.916Z,51.94
2023-04-20T22:39:10.767Z,52.06
2023-04-20T22:41:38.554Z,52.57
2023-04-20T22:44:06.284Z,52.30
2023-04-20T22:46:34.005Z,52.20
2023-04-20T22:49:01.801Z,52.43
2023-04-20T22:51:29.860Z,52.35
2023-04-20T22:54:00.918Z,53.09
2023-04-20T22:56:29.402Z,52.87
2023-04-20T22:58:57.214Z,53.14
2023-04-20T23:01:25.217Z,53.08
2023-04-20T23:03:53.174Z,53.33
2023-04-20T23:06:21.990Z,53.70
2023-04-20T23:08:49.790Z,53.86
2023-04-20T23:11:18.881Z,54.01
2023-04-20T23:13:47.752Z,54.30
2023-04-20T23:16:15.554Z,53.70
2023-04-20T23:18:43.311Z,54.51
2023-04-20T23:21:11.049Z,54.29
2023-04-20T23:23:38.750Z,54.82
2023-04-20T23:26:06.431Z,54.40
2023-04-20T23:28:35.689Z,54.80
2023-04-20T23:31:03.415Z,54.45
2023-04-20T23:33:31.152Z,54.83
2023-04-20T23:35:59.485Z,54.61
2023-04-20T23:38:27.232Z,54.75
2023-04-20T23:40:55.043Z,54.66
2023-04-20T23:43:22.750Z,55.29
2023-04-20T23:45:51.872Z,55.15
2023-04-20T23:48:19.577Z,55.20
2023-04-20T23:50:49.851Z,55.56
2023-04-20T23:53:17.658Z,55.69
2023-04-20T23:55:51.702Z,55.72
2023-04-20T23:58:19.492Z,55.75
